sensor_id;sensor_type;location;lat;lon;timestamp;pressure;altitude;pressure_sealevel;temperature;humidity
27643;BME280;15053;48.618;10.024;2023-01-27T00:00:12;94274.69;;;-0.51;87.34
27643;BME280;15053;48.618;10.024;2023-01-27T00:02:41;94274.69;;;-0.51;87.57
27643;BME280;15053;48.618;10.024;2023-01-27T00:05:10;94269.78;;;-0.52;87.44
27643;BME280;15053;48.618;10.024;2023-01-27T00:07:37;94266.44;;;-0.53;88.09
27643;BME280;15053;48.618;10.024;2023-01-27T00:10:04;94264.88;;;-0.54;88.68
27643;BME280;15053;48.618;10.024;2023-01-27T00:12:31;94251.91;;;-0.52;88.58
27643;BME280;15053;48.618;10.024;2023-01-27T00:15:16;94257.75;;;-0.52;87.75
27643;BME280;15053;48.618;10.024;2023-01-27T00:17:42;94257.34;;;-0.49;87.68
27643;BME280;15053;48.618;10.024;2023-01-27T00:20:09;94256.22;;;-0.53;88.72
27643;BME280;15053;48.618;10.024;2023-01-27T00:22:36;94260.97;;;-0.56;88.07
27643;BME280;15053;48.618;10.024;2023-01-27T00:25:21;94253.13;;;-0.55;88.62
27643;BME280;15053;48.618;10.024;2023-01-27T00:27:48;94256.00;;;-0.51;88.51
27643;BME280;15053;48.618;10.024;2023-01-27T00:30:14;94251.91;;;-0.52;88.13
27643;BME280;15053;48.618;10.024;2023-01-27T00:32:40;94256.22;;;-0.53;87.63
27643;BME280;15053;48.618;10.024;2023-01-27T00:35:26;94261.91;;;-0.51;88.42
27643;BME280;15053;48.618;10.024;2023-01-27T00:37:53;94259.09;;;-0.49;88.74
27643;BME280;15053;48.618;10.024;2023-01-27T00:40:19;94267.56;;;-0.49;88.60
27643;BME280;15053;48.618;10.024;2023-01-27T00:42:46;94276.56;;;-0.46;88.51
27643;BME280;15053;48.618;10.024;2023-01-27T00:45:12;94268.69;;;-0.45;88.72
27643;BME280;15053;48.618;10.024;2023-01-27T00:47:57;94263.03;;;-0.47;88.42
27643;BME280;15053;48.618;10.024;2023-01-27T00:50:24;94259.25;;;-0.44;88.92
27643;BME280;15053;48.618;10.024;2023-01-27T00:52:50;94258.03;;;-0.42;88.69
27643;BME280;15053;48.618;10.024;2023-01-27T00:55:18;94259.38;;;-0.39;88.04
27643;BME280;15053;48.618;10.024;2023-01-27T00:57:44;94261.38;;;-0.41;88.36
27643;BME280;15053;48.618;10.024;2023-01-27T01:00:11;94261.56;;;-0.43;87.83
27643;BME280;15053;48.618;10.024;2023-01-27T01:02:39;94259.34;;;-0.51;88.10
27643;BME280;15053;48.618;10.024;2023-01-27T01:05:06;94268.16;;;-0.47;88.56
27643;BME280;15053;48.618;10.024;2023-01-27T01:07:33;94264.38;;;-0.44;87.88
27643;BME280;15053;48.618;10.024;2023-01-27T01:10:00;94258.47;;;-0.45;88.72
27643;BME280;15053;48.618;10.024;2023-01-27T01:12:26;94256.69;;;-0.44;88.48
27643;BME280;15053;48.618;10.024;2023-01-27T01:14:53;94252.34;;;-0.44;88.83
27643;BME280;15053;48.618;10.024;2023-01-27T01:17:20;94254.13;;;-0.44;88.32
27643;BME280;15053;48.618;10.024;2023-01-27T01:19:47;94247.22;;;-0.55;89.32
27643;BME280;15053;48.618;10.024;2023-01-27T01:22:13;94267.91;;;-0.45;88.84
27643;BME280;15053;48.618;10.024;2023-01-27T01:24:39;94268.69;;;-0.45;88.18
27643;BME280;15053;48.618;10.024;2023-01-27T01:27:06;94266.34;;;-0.46;88.96
27643;BME280;15053;48.618;10.024;2023-01-27T01:29:32;94271.69;;;-0.48;89.41
27643;BME280;15053;48.618;10.024;2023-01-27T01:31:59;94269.13;;;-0.48;89.07
27643;BME280;15053;48.618;10.024;2023-01-27T01:34:25;94260.31;;;-0.52;89.38
27643;BME280;15053;48.618;10.024;2023-01-27T01:36:52;94264.44;;;-0.51;88.40
27643;BME280;15053;48.618;10.024;2023-01-27T01:39:18;94263.66;;;-0.51;88.75
27643;BME280;15053;48.618;10.024;2023-01-27T01:41:45;94269.91;;;-0.47;88.41
27643;BME280;15053;48.618;10.024;2023-01-27T01:44:29;94272.25;;;-0.46;89.39
27643;BME280;15053;48.618;10.024;2023-01-27T01:46:58;94262.31;;;-0.54;88.83
27643;BME280;15053;48.618;10.024;2023-01-27T01:49:33;94263.97;;;-0.60;88.20
27643;BME280;15053;48.618;10.024;2023-01-27T01:52:06;94265.19;;;-0.62;88.88
27643;BME280;15053;48.618;10.024;2023-01-27T01:54:41;94261.41;;;-0.60;89.68
27643;BME280;15053;48.618;10.024;2023-01-27T01:57:13;94257.44;;;-0.55;89.54
27643;BME280;15053;48.618;10.024;2023-01-27T01:59:45;94252.75;;;-0.58;89.94
27643;BME280;15053;48.618;10.024;2023-01-27T02:02:16;94253.66;;;-0.53;88.79
27643;BME280;15053;48.618;10.024;2023-01-27T02:04:54;94259.78;;;-0.54;88.94
27643;BME280;15053;48.618;10.024;2023-01-27T02:07:34;94253.13;;;-0.55;88.83
27643;BME280;15053;48.618;10.024;2023-01-27T02:10:03;94246.31;;;-0.61;88.46
27643;BME280;15053;48.618;10.024;2023-01-27T02:12:34;94240.59;;;-0.63;88.55
27643;BME280;15053;48.618;10.024;2023-01-27T02:15:00;94241.63;;;-0.64;88.51
27643;BME280;15053;48.618;10.024;2023-01-27T02:17:27;94238.63;;;-0.61;89.07
27643;BME280;15053;48.618;10.024;2023-01-27T02:25:42;94234.19;;;-0.54;89.57
27643;BME280;15053;48.618;10.024;2023-01-27T02:28:09;94235.66;;;-0.58;88.75
27643;BME280;15053;48.618;10.024;2023-01-27T02:30:36;94235.66;;;-0.58;88.88
27643;BME280;15053;48.618;10.024;2023-01-27T02:33:09;94229.53;;;-0.57;89.53
27643;BME280;15053;48.618;10.024;2023-01-27T02:35:41;94241.50;;;-0.57;89.63
27643;BME280;15053;48.618;10.024;2023-01-27T02:38:10;94240.53;;;-0.56;89.80
27643;BME280;15053;48.618;10.024;2023-01-27T02:40:39;94234.63;;;-0.57;89.64
27643;BME280;15053;48.618;10.024;2023-01-27T02:43:05;94238.97;;;-0.57;89.12
27643;BME280;15053;48.618;10.024;2023-01-27T02:45:32;94225.84;;;-0.61;88.84
27643;BME280;15053;48.618;10.024;2023-01-27T02:48:00;94229.31;;;-0.55;89.29
27643;BME280;15053;48.618;10.024;2023-01-27T02:50:27;94225.41;;;-0.58;89.53
27643;BME280;15053;48.618;10.024;2023-01-27T02:52:53;94218.50;;;-0.57;89.48
27643;BME280;15053;48.618;10.024;2023-01-27T02:55:21;94226.19;;;-0.57;89.76
27643;BME280;15053;48.618;10.024;2023-01-27T02:57:49;94219.28;;;-0.57;88.77
27643;BME280;15053;48.618;10.024;2023-01-27T03:00:29;94234.63;;;-0.57;89.14
27643;BME280;15053;48.618;10.024;2023-01-27T03:02:56;94220.84;;;-0.56;89.29
27643;BME280;15053;48.618;10.024;2023-01-27T03:05:23;94227.97;;;-0.58;88.93
27643;BME280;15053;48.618;10.024;2023-01-27T03:07:50;94218.19;;;-0.61;89.19
27643;BME280;15053;48.618;10.024;2023-01-27T03:10:18;94226.84;;;-0.62;89.19
27643;BME280;15053;48.618;10.024;2023-01-27T03:12:44;94231.94;;;-0.62;89.40
27643;BME280;15053;48.618;10.024;2023-01-27T03:15:12;94220.94;;;-0.63;88.96
27643;BME280;15053;48.618;10.024;2023-01-27T03:18:05;94233.53;;;-0.61;89.03
27643;BME280;15053;48.618;10.024;2023-01-27T03:20:39;94234.94;;;-0.65;88.48
27643;BME280;15053;48.618;10.024;2023-01-27T03:23:06;94233.25;;;-0.71;88.47
27643;BME280;15053;48.618;10.024;2023-01-27T03:25:34;94240.00;;;-0.77;88.53
27643;BME280;15053;48.618;10.024;2023-01-27T03:28:01;94242.00;;;-0.79;89.61
27643;BME280;15053;48.618;10.024;2023-01-27T03:30:51;94251.44;;;-0.79;89.31
27643;BME280;15053;48.618;10.024;2023-01-27T03:33:23;94247.34;;;-0.80;89.11
27643;BME280;15053;48.618;10.024;2023-01-27T03:35:52;94244.44;;;-0.84;88.78
27643;BME280;15053;48.618;10.024;2023-01-27T03:38:45;94260.56;;;-0.83;89.44
27643;BME280;15053;48.618;10.024;2023-01-27T03:41:30;94250.78;;;-0.86;88.88
27643;BME280;15053;48.618;10.024;2023-01-27T03:44:15;94251.19;;;-0.89;88.89
27643;BME280;15053;48.618;10.024;2023-01-27T03:47:00;94252.19;;;-0.90;89.44
27643;BME280;15053;48.618;10.024;2023-01-27T03:49:27;94242.75;;;-0.90;89.04
27643;BME280;15053;48.618;10.024;2023-01-27T03:51:54;94243.31;;;-0.88;89.38
27643;BME280;15053;48.618;10.024;2023-01-27T03:54:21;94243.66;;;-0.84;89.32
27643;BME280;15053;48.618;10.024;2023-01-27T03:56:47;94250.13;;;-0.82;89.29
27643;BME280;15053;48.618;10.024;2023-01-27T03:59:15;94246.78;;;-0.82;89.28
27643;BME280;15053;48.618;10.024;2023-01-27T04:01:42;94234.56;;;-0.80;89.64
27643;BME280;15053;48.618;10.024;2023-01-27T04:04:09;94232.56;;;-0.78;90.13
27643;BME280;15053;48.618;10.024;2023-01-27T04:06:55;94220.22;;;-0.81;88.97
27643;BME280;15053;48.618;10.024;2023-01-27T04:09:34;94230.88;;;-0.84;89.21
27643;BME280;15053;48.618;10.024;2023-01-27T04:12:03;94226.00;;;-0.86;89.92
27643;BME280;15053;48.618;10.024;2023-01-27T04:14:36;94223.31;;;-0.91;89.61
27643;BME280;15053;48.618;10.024;2023-01-27T04:17:11;94218.22;;;-0.91;90.21
27643;BME280;15053;48.618;10.024;2023-01-27T04:19:38;94223.66;;;-0.87;90.10
27643;BME280;15053;48.618;10.024;2023-01-27T04:22:05;94237.56;;;-0.83;89.79
27643;BME280;15053;48.618;10.024;2023-01-27T04:24:32;94239.56;;;-0.85;89.30
27643;BME280;15053;48.618;10.024;2023-01-27T04:27:03;94238.19;;;-0.88;89.27
27643;BME280;15053;48.618;10.024;2023-01-27T04:29:34;94240.97;;;-0.89;88.91
27643;BME280;15053;48.618;10.024;2023-01-27T04:32:02;94245.31;;;-0.90;89.87
27643;BME280;15053;48.618;10.024;2023-01-27T04:34:30;94253.19;;;-0.91;89.97
27643;BME280;15053;48.618;10.024;2023-01-27T04:36:58;94252.78;;;-0.88;90.08
27643;BME280;15053;48.618;10.024;2023-01-27T04:39:25;94241.34;;;-0.86;90.03
27643;BME280;15053;48.618;10.024;2023-01-27T04:41:51;94258.78;;;-0.83;89.52
27643;BME280;15053;48.618;10.024;2023-01-27T04:44:18;94251.44;;;-0.79;90.16
27643;BME280;15053;48.618;10.024;2023-01-27T04:46:45;94256.56;;;-0.79;89.90
27643;BME280;15053;48.618;10.024;2023-01-27T04:49:12;94253.69;;;-0.83;90.30
27643;BME280;15053;48.618;10.024;2023-01-27T04:51:38;94263.69;;;-0.81;90.27
27643;BME280;15053;48.618;10.024;2023-01-27T04:54:05;94269.22;;;-0.84;89.43
27643;BME280;15053;48.618;10.024;2023-01-27T04:56:34;94267.88;;;-0.87;89.32
27643;BME280;15053;48.618;10.024;2023-01-27T04:59:06;94268.31;;;-0.90;90.20
27643;BME280;15053;48.618;10.024;2023-01-27T05:01:33;94242.97;;;-0.91;90.10
27643;BME280;15053;48.618;10.024;2023-01-27T05:03:59;94240.41;;;-0.91;89.79
27643;BME280;15053;48.618;10.024;2023-01-27T05:06:26;94255.31;;;-0.88;90.37
27643;BME280;15053;48.618;10.024;2023-01-27T05:08:53;94244.88;;;-0.87;89.49
27643;BME280;15053;48.618;10.024;2023-01-27T05:11:19;94252.34;;;-0.85;89.65
27643;BME280;15053;48.618;10.024;2023-01-27T05:13:46;94266.47;;;-0.83;89.14
27643;BME280;15053;48.618;10.024;2023-01-27T05:16:21;94269.56;;;-0.81;90.19
27643;BME280;15053;48.618;10.024;2023-01-27T05:18:52;94271.47;;;-0.76;89.61
27643;BME280;15053;48.618;10.024;2023-01-27T05:21:21;94266.16;;;-0.75;89.18
27643;BME280;15053;48.618;10.024;2023-01-27T05:23:48;94274.25;;;-0.78;89.39
27643;BME280;15053;48.618;10.024;2023-01-27T05:26:21;94268.78;;;-0.81;89.10
27643;BME280;15053;48.618;10.024;2023-01-27T05:28:48;94263.56;;;-0.86;89.87
27643;BME280;15053;48.618;10.024;2023-01-27T05:31:27;94251.44;;;-0.91;89.25
27643;BME280;15053;48.618;10.024;2023-01-27T05:33:55;94259.09;;;-0.91;88.76
27643;BME280;15053;48.618;10.024;2023-01-27T05:36:24;94249.72;;;-0.97;89.40
27643;BME280;15053;48.618;10.024;2023-01-27T05:38:52;94255.63;;;-0.96;89.80
27643;BME280;15053;48.618;10.024;2023-01-27T05:41:19;94264.28;;;-0.97;89.41
27643;BME280;15053;48.618;10.024;2023-01-27T05:43:50;94270.19;;;-0.97;89.62
27643;BME280;15053;48.618;10.024;2023-01-27T05:46:20;94274.63;;;-0.92;89.92
27643;BME280;15053;48.618;10.024;2023-01-27T05:48:49;94273.06;;;-0.93;89.58
27643;BME280;15053;48.618;10.024;2023-01-27T05:51:17;94272.94;;;-0.98;88.88
27643;BME280;15053;48.618;10.024;2023-01-27T05:53:44;94268.03;;;-1.00;89.14
27643;BME280;15053;48.618;10.024;2023-01-27T05:56:17;94273.28;;;-0.95;89.47
27643;BME280;15053;48.618;10.024;2023-01-27T05:58:44;94277.41;;;-0.94;89.87
27643;BME280;15053;48.618;10.024;2023-01-27T06:01:16;94279.19;;;-0.94;89.15
27643;BME280;15053;48.618;10.024;2023-01-27T06:03:43;94282.28;;;-0.92;89.98
27643;BME280;15053;48.618;10.024;2023-01-27T06:06:11;94276.06;;;-0.96;89.48
27643;BME280;15053;48.618;10.024;2023-01-27T06:08:38;94281.59;;;-0.99;89.53
27643;BME280;15053;48.618;10.024;2023-01-27T06:11:05;94282.38;;;-0.99;88.84
27643;BME280;15053;48.618;10.024;2023-01-27T06:13:32;94280.88;;;-1.06;88.73
27643;BME280;15053;48.618;10.024;2023-01-27T06:16:04;94287.44;;;-1.10;88.58
27643;BME280;15053;48.618;10.024;2023-01-27T06:18:31;94295.94;;;-1.16;88.49
27643;BME280;15053;48.618;10.024;2023-01-27T06:20:59;94303.59;;;-1.16;89.46
27643;BME280;15053;48.618;10.024;2023-01-27T06:23:26;94305.94;;;-1.15;90.00
27643;BME280;15053;48.618;10.024;2023-01-27T06:25:54;94281.41;;;-1.16;90.15
27643;BME280;15053;48.618;10.024;2023-01-27T06:28:22;94288.97;;;-1.09;89.36
27643;BME280;15053;48.618;10.024;2023-01-27T06:30:55;94276.63;;;-1.12;89.83
27643;BME280;15053;48.618;10.024;2023-01-27T06:33:22;94286.84;;;-1.12;89.91
27643;BME280;15053;48.618;10.024;2023-01-27T06:35:49;94300.22;;;-1.10;89.43
27643;BME280;15053;48.618;10.024;2023-01-27T06:38:15;94303.75;;;-1.11;89.06
27643;BME280;15053;48.618;10.024;2023-01-27T06:40:42;94311.00;;;-1.08;89.38
27643;BME280;15053;48.618;10.024;2023-01-27T06:43:12;94313.13;;;-1.05;90.07
27643;BME280;15053;48.618;10.024;2023-01-27T06:45:39;94310.75;;;-1.07;89.34
27643;BME280;15053;48.618;10.024;2023-01-27T06:48:06;94325.03;;;-1.17;89.28
27643;BME280;15053;48.618;10.024;2023-01-27T06:50:36;94335.34;;;-1.24;89.37
27643;BME280;15053;48.618;10.024;2023-01-27T06:53:04;94334.53;;;-1.25;89.96
27643;BME280;15053;48.618;10.024;2023-01-27T06:55:31;94343.97;;;-1.25;89.17
27643;BME280;15053;48.618;10.024;2023-01-27T06:58:00;94338.88;;;-1.25;88.96
27643;BME280;15053;48.618;10.024;2023-01-27T07:00:26;94339.50;;;-1.30;89.36
27643;BME280;15053;48.618;10.024;2023-01-27T07:02:56;94341.47;;;-1.32;89.98
27643;BME280;15053;48.618;10.024;2023-01-27T07:05:23;94342.47;;;-1.33;89.34
27643;BME280;15053;48.618;10.024;2023-01-27T07:07:49;94340.50;;;-1.31;89.60
27643;BME280;15053;48.618;10.024;2023-01-27T07:10:16;94342.06;;;-1.30;90.10
27643;BME280;15053;48.618;10.024;2023-01-27T07:12:43;94346.75;;;-1.27;89.79
27643;BME280;15053;48.618;10.024;2023-01-27T07:15:10;94347.16;;;-1.30;90.10
27643;BME280;15053;48.618;10.024;2023-01-27T07:17:37;94347.44;;;-1.38;90.36
27643;BME280;15053;48.618;10.024;2023-01-27T07:20:06;94361.91;;;-1.32;89.90
27643;BME280;15053;48.618;10.024;2023-01-27T07:22:33;94356.03;;;-1.32;90.35
27643;BME280;15053;48.618;10.024;2023-01-27T07:25:00;94336.63;;;-1.40;90.00
27643;BME280;15053;48.618;10.024;2023-01-27T07:27:26;94354.31;;;-1.38;89.14
27643;BME280;15053;48.618;10.024;2023-01-27T07:29:53;94351.91;;;-1.33;89.57
27643;BME280;15053;48.618;10.024;2023-01-27T07:32:20;94366.19;;;-1.26;89.30
27643;BME280;15053;48.618;10.024;2023-01-27T07:34:46;94358.47;;;-1.19;89.54
27643;BME280;15053;48.618;10.024;2023-01-27T07:37:13;94362.94;;;-1.14;90.04
27643;BME280;15053;48.618;10.024;2023-01-27T07:39:39;94359.53;;;-1.08;89.08
27643;BME280;15053;48.618;10.024;2023-01-27T07:42:07;94350.09;;;-1.08;89.41
27643;BME280;15053;48.618;10.024;2023-01-27T07:44:35;94365.00;;;-1.05;89.59
27643;BME280;15053;48.618;10.024;2023-01-27T07:47:01;94368.53;;;-1.06;88.93
27643;BME280;15053;48.618;10.024;2023-01-27T07:49:28;94369.25;;;-0.99;89.32
27643;BME280;15053;48.618;10.024;2023-01-27T07:51:54;94367.75;;;-1.06;88.25
27643;BME280;15053;48.618;10.024;2023-01-27T07:54:21;94374.44;;;-1.05;87.82
27643;BME280;15053;48.618;10.024;2023-01-27T07:56:47;94380.91;;;-1.03;88.89
27643;BME280;15053;48.618;10.024;2023-01-27T07:59:14;94377.69;;;-0.98;88.75
27643;BME280;15053;48.618;10.024;2023-01-27T08:01:40;94379.41;;;-0.92;87.99
27643;BME280;15053;48.618;10.024;2023-01-27T08:04:08;94389.75;;;-0.87;88.17
27643;BME280;15053;48.618;10.024;2023-01-27T08:06:37;94391.13;;;-0.85;88.52
27643;BME280;15053;48.618;10.024;2023-01-27T08:09:05;94394.31;;;-0.89;88.02
27643;BME280;15053;48.618;10.024;2023-01-27T08:11:31;94396.31;;;-0.91;87.61
27643;BME280;15053;48.618;10.024;2023-01-27T08:13:58;94392.19;;;-0.92;87.32
27643;BME280;15053;48.618;10.024;2023-01-27T08:16:25;94402.81;;;-0.95;87.46
27643;BME280;15053;48.618;10.024;2023-01-27T08:18:52;94407.38;;;-0.97;87.78
27643;BME280;15053;48.618;10.024;2023-01-27T08:21:19;94399.91;;;-0.99;86.97
27643;BME280;15053;48.618;10.024;2023-01-27T08:23:46;94394.78;;;-0.99;87.26
27643;BME280;15053;48.618;10.024;2023-01-27T08:26:13;94389.25;;;-0.96;87.86
27643;BME280;15053;48.618;10.024;2023-01-27T08:28:39;94386.09;;;-0.91;88.41
27643;BME280;15053;48.618;10.024;2023-01-27T08:31:09;94377.41;;;-0.90;87.76
27643;BME280;15053;48.618;10.024;2023-01-27T08:33:36;94390.41;;;-0.92;88.14
27643;BME280;15053;48.618;10.024;2023-01-27T08:36:16;94385.66;;;-0.88;88.10
27643;BME280;15053;48.618;10.024;2023-01-27T08:38:44;94386.22;;;-0.86;87.05
27643;BME280;15053;48.618;10.024;2023-01-27T08:41:16;94386.22;;;-0.86;87.74
27643;BME280;15053;48.618;10.024;2023-01-27T08:43:43;94397.00;;;-0.84;88.02
27643;BME280;15053;48.618;10.024;2023-01-27T08:46:10;94396.59;;;-0.81;87.74
27643;BME280;15053;48.618;10.024;2023-01-27T08:48:37;94397.16;;;-0.79;88.21
27643;BME280;15053;48.618;10.024;2023-01-27T08:51:05;94389.06;;;-0.76;87.29
27643;BME280;15053;48.618;10.024;2023-01-27T08:53:32;94398.00;;;-0.67;88.03
27643;BME280;15053;48.618;10.024;2023-01-27T08:56:05;94393.59;;;-0.60;88.51
27643;BME280;15053;48.618;10.024;2023-01-27T08:58:33;94391.63;;;-0.58;88.14
27643;BME280;15053;48.618;10.024;2023-01-27T09:01:00;94388.47;;;-0.60;88.38
27643;BME280;15053;48.618;10.024;2023-01-27T09:03:31;94386.81;;;-0.66;87.93
27643;BME280;15053;48.618;10.024;2023-01-27T09:05:59;94390.47;;;-0.62;87.90
27643;BME280;15053;48.618;10.024;2023-01-27T09:08:26;94396.00;;;-0.65;87.52
27643;BME280;15053;48.618;10.024;2023-01-27T09:10:53;94385.22;;;-0.67;87.64
27643;BME280;15053;48.618;10.024;2023-01-27T09:13:20;94385.28;;;-0.55;88.09
27643;BME280;15053;48.618;10.024;2023-01-27T09:15:50;94386.97;;;-0.49;87.84
27643;BME280;15053;48.618;10.024;2023-01-27T09:18:18;94384.91;;;-0.41;88.14
27643;BME280;15053;48.618;10.024;2023-01-27T09:20:45;94392.50;;;-0.34;88.51
27643;BME280;15053;48.618;10.024;2023-01-27T09:23:11;94381.72;;;-0.36;88.51
27643;BME280;15053;48.618;10.024;2023-01-27T09:25:38;94386.25;;;-0.38;87.46
27643;BME280;15053;48.618;10.024;2023-01-27T09:28:04;94392.94;;;-0.37;88.05
27643;BME280;15053;48.618;10.024;2023-01-27T09:30:31;94391.34;;;-0.38;87.31
27643;BME280;15053;48.618;10.024;2023-01-27T09:32:58;94390.13;;;-0.47;88.09
27643;BME280;15053;48.618;10.024;2023-01-27T09:35:29;94388.41;;;-0.53;87.94
27643;BME280;15053;48.618;10.024;2023-01-27T09:38:02;94390.19;;;-0.54;88.12
27643;BME280;15053;48.618;10.024;2023-01-27T09:43:33;94400.69;;;-0.62;88.31
27643;BME280;15053;48.618;10.024;2023-01-27T09:49:07;94409.81;;;-0.66;87.37
27643;BME280;15053;48.618;10.024;2023-01-27T09:55:05;94423.44;;;-0.54;88.54
27643;BME280;15053;48.618;10.024;2023-01-27T10:14:13;94424.28;;;-0.42;87.05
27643;BME280;15053;48.618;10.024;2023-01-27T10:16:55;94428.53;;;-0.36;87.31
27643;BME280;15053;48.618;10.024;2023-01-27T10:19:40;94426.69;;;-0.29;87.65
27643;BME280;15053;48.618;10.024;2023-01-27T10:22:19;94432.16;;;-0.25;87.41
27643;BME280;15053;48.618;10.024;2023-01-27T10:25:25;94434.84;;;-0.20;87.32
27643;BME280;15053;48.618;10.024;2023-01-27T10:27:57;94433.75;;;-0.13;86.86
27643;BME280;15053;48.618;10.024;2023-01-27T10:30:33;94439.00;;;-0.08;86.98
27643;BME280;15053;48.618;10.024;2023-01-27T10:33:17;94436.13;;;0.00;87.08
27643;BME280;15053;48.618;10.024;2023-01-27T10:35:50;94435.38;;;0.00;86.60
27643;BME280;15053;48.618;10.024;2023-01-27T10:38:22;94434.78;;;-0.02;86.80
27643;BME280;15053;48.618;10.024;2023-01-27T10:43:36;94428.88;;;-0.14;85.97
27643;BME280;15053;48.618;10.024;2023-01-27T10:46:30;94438.88;;;-0.13;85.89
27643;BME280;15053;48.618;10.024;2023-01-27T10:49:53;94431.31;;;-0.08;86.56
27643;BME280;15053;48.618;10.024;2023-01-27T10:52:15;94438.00;;;-0.07;85.74
27643;BME280;15053;48.618;10.024;2023-01-27T10:54:49;94426.06;;;-0.13;86.26
27643;BME280;15053;48.618;10.024;2023-01-27T10:57:24;94418.69;;;-0.21;86.44
27643;BME280;15053;48.618;10.024;2023-01-27T11:00:07;94435.94;;;-0.16;86.28
27643;BME280;15053;48.618;10.024;2023-01-27T11:03:06;94431.97;;;-0.12;85.95
27643;BME280;15053;48.618;10.024;2023-01-27T11:05:39;94434.66;;;-0.07;85.79
27643;BME280;15053;48.618;10.024;2023-01-27T11:08:18;94438.69;;;0.00;86.98
27643;BME280;15053;48.618;10.024;2023-01-27T11:10:50;94434.72;;;0.05;86.30
27643;BME280;15053;48.618;10.024;2023-01-27T11:13:37;94427.41;;;0.08;86.58
27643;BME280;15053;48.618;10.024;2023-01-27T11:16:05;94434.16;;;0.03;86.78
27643;BME280;15053;48.618;10.024;2023-01-27T11:18:36;94433.81;;;-0.01;86.20
27643;BME280;15053;48.618;10.024;2023-01-27T11:21:06;94427.34;;;-0.04;86.38
27643;BME280;15053;48.618;10.024;2023-01-27T11:23:42;94422.72;;;0.05;86.74
27643;BME280;15053;48.618;10.024;2023-01-27T11:29:01;94409.81;;;0.12;86.58
27643;BME280;15053;48.618;10.024;2023-01-27T11:34:32;94403.81;;;0.18;85.92
27643;BME280;15053;48.618;10.024;2023-01-27T11:39:38;94398.03;;;0.22;85.15
27643;BME280;15053;48.618;10.024;2023-01-27T11:42:05;94407.06;;;0.25;85.12
27643;BME280;15053;48.618;10.024;2023-01-27T11:44:32;94397.72;;;0.19;85.47
27643;BME280;15053;48.618;10.024;2023-01-27T11:47:01;94416.19;;;0.21;85.93
27643;BME280;15053;48.618;10.024;2023-01-27T11:49:34;94420.09;;;0.23;85.42
27643;BME280;15053;48.618;10.024;2023-01-27T11:52:13;94418.06;;;0.25;85.64
27643;BME280;15053;48.618;10.024;2023-01-27T11:55:03;94419.22;;;0.29;84.70
27643;BME280;15053;48.618;10.024;2023-01-27T11:57:30;94422.13;;;0.33;85.58
27643;BME280;15053;48.618;10.024;2023-01-27T12:00:04;94422.69;;;0.35;85.42
27643;BME280;15053;48.618;10.024;2023-01-27T12:02:41;94416.53;;;0.36;85.36
27643;BME280;15053;48.618;10.024;2023-01-27T12:05:14;94417.13;;;0.38;85.37
27643;BME280;15053;48.618;10.024;2023-01-27T12:07:57;94420.22;;;0.40;84.69
27643;BME280;15053;48.618;10.024;2023-01-27T12:10:35;94422.69;;;0.35;85.04
27643;BME280;15053;48.618;10.024;2023-01-27T12:13:18;94413.75;;;0.26;84.86
27643;BME280;15053;48.618;10.024;2023-01-27T12:15:55;94409.63;;;0.25;85.59
27643;BME280;15053;48.618;10.024;2023-01-27T12:18:24;94408.63;;;0.26;84.82
27643;BME280;15053;48.618;10.024;2023-01-27T12:21:03;94406.97;;;0.31;85.01
27643;BME280;15053;48.618;10.024;2023-01-27T12:23:36;94405.63;;;0.29;84.25
27643;BME280;15053;48.618;10.024;2023-01-27T12:26:09;94403.72;;;0.36;85.34
27643;BME280;15053;48.618;10.024;2023-01-27T12:31:17;94394.97;;;0.55;84.48
27643;BME280;15053;48.618;10.024;2023-01-27T12:33:56;94381.72;;;0.58;85.11
27643;BME280;15053;48.618;10.024;2023-01-27T12:36:23;94388.75;;;0.63;84.60
27643;BME280;15053;48.618;10.024;2023-01-27T12:38:52;94379.94;;;0.58;84.90
27643;BME280;15053;48.618;10.024;2023-01-27T12:41:41;94367.81;;;0.54;84.10
27643;BME280;15053;48.618;10.024;2023-01-27T12:44:15;94371.47;;;0.46;83.53
27643;BME280;15053;48.618;10.024;2023-01-27T12:47:01;94369.13;;;0.45;84.26
27643;BME280;15053;48.618;10.024;2023-01-27T12:49:33;94367.69;;;0.49;84.07
27643;BME280;15053;48.618;10.024;2023-01-27T12:52:02;94356.88;;;0.47;83.66
27643;BME280;15053;48.618;10.024;2023-01-27T12:54:31;94356.66;;;0.48;84.88
27643;BME280;15053;48.618;10.024;2023-01-27T12:57:03;94349.53;;;0.50;83.89
27643;BME280;15053;48.618;10.024;2023-01-27T12:59:32;94350.06;;;0.52;84.05
27643;BME280;15053;48.618;10.024;2023-01-27T13:02:15;94352.00;;;0.57;83.92
27643;BME280;15053;48.618;10.024;2023-01-27T13:04:58;94330.03;;;0.61;83.79
27643;BME280;15053;48.618;10.024;2023-01-27T13:07:30;94357.44;;;0.72;83.89
27643;BME280;15053;48.618;10.024;2023-01-27T13:10:02;94356.00;;;0.76;84.01
27643;BME280;15053;48.618;10.024;2023-01-27T13:12:36;94366.69;;;0.73;83.73
27643;BME280;15053;48.618;10.024;2023-01-27T13:15:17;94373.06;;;0.71;84.04
27643;BME280;15053;48.618;10.024;2023-01-27T13:17:49;94369.03;;;0.63;83.70
27643;BME280;15053;48.618;10.024;2023-01-27T13:23:10;94378.50;;;0.63;83.80
27643;BME280;15053;48.618;10.024;2023-01-27T13:25:46;94387.97;;;0.62;84.26
27643;BME280;15053;48.618;10.024;2023-01-27T13:28:21;94382.84;;;0.62;84.49
27643;BME280;15053;48.618;10.024;2023-01-27T13:30:52;94377.50;;;0.52;83.39
27643;BME280;15053;48.618;10.024;2023-01-27T13:33:46;94378.25;;;0.52;83.80
27643;BME280;15053;48.618;10.024;2023-01-27T13:39:16;94384.41;;;0.51;84.27
27643;BME280;15053;48.618;10.024;2023-01-27T13:41:53;94379.59;;;0.43;83.51
27643;BME280;15053;48.618;10.024;2023-01-27T13:44:34;94386.59;;;0.36;83.72
27643;BME280;15053;48.618;10.024;2023-01-27T13:47:06;94392.94;;;0.34;84.49
27643;BME280;15053;48.618;10.024;2023-01-27T13:49:41;94392.72;;;0.35;84.45
27643;BME280;15053;48.618;10.024;2023-01-27T13:52:09;94387.19;;;0.38;84.06
27643;BME280;15053;48.618;10.024;2023-01-27T13:54:36;94384.38;;;0.40;84.07
27643;BME280;15053;48.618;10.024;2023-01-27T14:00:12;94385.81;;;0.47;85.13
27643;BME280;15053;48.618;10.024;2023-01-27T14:05:50;94394.41;;;0.53;85.41
27643;BME280;15053;48.618;10.024;2023-01-27T14:08:33;94401.09;;;0.54;84.32